createdAt,value
2019-01-02T00:00:53.908Z,0
2019-01-02T00:01:58.565Z,0
2019-01-02T00:03:03.847Z,0
2019-01-02T00:04:11.842Z,0
2019-01-02T00:05:19.801Z,0
2019-01-02T00:06:27.904Z,0
2019-01-02T00:07:34.489Z,0
2019-01-02T00:08:42.225Z,0
2019-01-02T00:09:46.432Z,0
2019-01-02T00:10:54.529Z,0
2019-01-02T00:12:03.537Z,0
2019-01-02T00:13:08.978Z,0
2019-01-02T00:14:16.329Z,0
2019-01-02T00:15:25.104Z,0
2019-01-02T00:16:31.511Z,0
2019-01-02T00:17:40.231Z,0
2019-01-02T00:18:47.407Z,0
2019-01-02T00:19:53.777Z,0
2019-01-02T00:21:01.102Z,0
2019-01-02T00:22:10.769Z,0
2019-01-02T00:23:18.031Z,0
2019-01-02T00:24:25.609Z,0
2019-01-02T00:25:32.565Z,0
2019-01-02T00:26:42.904Z,0
2019-01-02T00:27:50.788Z,0
2019-01-02T00:28:59.328Z,0
2019-01-02T00:30:08.438Z,0
2019-01-02T00:31:14.925Z,0
2019-01-02T00:32:22.098Z,0
2019-01-02T00:33:30.186Z,0
2019-01-02T00:34:37.241Z,0
2019-01-02T00:35:45.157Z,0
2019-01-02T00:36:51.208Z,0
2019-01-02T00:37:59.902Z,0
2019-01-02T00:39:06.194Z,0
2019-01-02T00:40:14.816Z,0
2019-01-02T00:41:21.846Z,0
2019-01-02T00:42:29.933Z,0
2019-01-02T00:43:35.936Z,0
2019-01-02T00:44:44.146Z,0
2019-01-02T00:45:50.539Z,0
2019-01-02T00:46:57.098Z,0
2019-01-02T00:48:02.925Z,0
2019-01-02T00:49:10.465Z,0
2019-01-02T00:50:16.576Z,0
2019-01-02T00:51:23.006Z,0
2019-01-02T00:52:31.595Z,0
2019-01-02T00:53:37.631Z,0
2019-01-02T00:54:44.934Z,0
2019-01-02T00:55:54.233Z,0
2019-01-02T00:57:02.688Z,0
2019-01-02T00:58:09.915Z,0
2019-01-02T00:59:18.249Z,0
2019-01-02T01:00:25.835Z,0
2019-01-02T01:01:31.980Z,0
2019-01-02T01:02:39.874Z,0
2019-01-02T01:03:47.896Z,0
2019-01-02T01:04:55.278Z,0
2019-01-02T01:06:04.069Z,0
2019-01-02T01:07:13.033Z,0
2019-01-02T01:08:20.169Z,0
2019-01-02T01:09:28.645Z,0
2019-01-02T01:10:35.214Z,0
2019-01-02T01:11:41.968Z,0
2019-01-02T01:12:49.156Z,0
2019-01-02T01:13:55.411Z,0
2019-01-02T01:15:03.393Z,0
2019-01-02T01:16:13.002Z,0
2019-01-02T01:17:18.643Z,0
2019-01-02T01:18:26.038Z,0
2019-01-02T01:19:34.103Z,0
2019-01-02T01:20:41.753Z,0
2019-01-02T01:21:47.904Z,0
2019-01-02T01:22:53.910Z,0
2019-01-02T01:24:04.120Z,0
2019-01-02T01:25:10.366Z,0
2019-01-02T01:26:16.998Z,0
2019-01-02T01:27:24.034Z,0
2019-01-02T01:28:31.614Z,0
2019-01-02T01:29:39.006Z,0
2019-01-02T01:30:45.904Z,0
2019-01-02T01:31:53.909Z,0
2019-01-02T01:33:00.204Z,0
2019-01-02T01:34:07.757Z,0
2019-01-02T01:35:14.922Z,0
2019-01-02T01:36:21.383Z,0
2019-01-02T01:37:28.627Z,0
2019-01-02T01:38:36.942Z,0
2019-01-02T01:39:43.636Z,0
2019-01-02T01:40:51.549Z,0
2019-01-02T01:41:59.783Z,0
2019-01-02T01:43:04.850Z,0
2019-01-02T01:44:13.057Z,0
2019-01-02T01:45:20.598Z,0
2019-01-02T01:46:25.849Z,0
2019-01-02T01:47:32.996Z,0
2019-01-02T01:48:41.983Z,0
2019-01-02T01:49:49.215Z,0
2019-01-02T01:50:55.165Z,0
2019-01-02T01:52:02.720Z,0
2019-01-02T01:53:11.499Z,0
2019-01-02T01:54:16.238Z,0
2019-01-02T01:55:22.943Z,0
2019-01-02T01:56:32.008Z,0
2019-01-02T01:57:38.847Z,0
2019-01-02T01:58:46.587Z,0
2019-01-02T01:59:54.661Z,0
2019-01-02T02:01:00.859Z,0
2019-01-02T02:02:08.505Z,0
2019-01-02T02:03:12.370Z,0
2019-01-02T02:04:20.268Z,0
2019-01-02T02:05:28.209Z,0
2019-01-02T02:06:35.148Z,0
2019-01-02T02:07:42.479Z,0
2019-01-02T02:08:50.170Z,0
2019-01-02T02:09:57.525Z,0
2019-01-02T02:11:04.886Z,0
2019-01-02T02:12:12.607Z,0
2019-01-02T02:13:20.945Z,0
2019-01-02T02:14:27.449Z,0
2019-01-02T02:15:33.894Z,0
2019-01-02T02:16:36.189Z,0
2019-01-02T02:17:39.085Z,0
2019-01-02T02:18:42.863Z,0
2019-01-02T02:19:45.117Z,0
2019-01-02T02:20:48.860Z,0
2019-01-02T02:21:51.021Z,0
2019-01-02T02:22:53.871Z,0
2019-01-02T02:23:57.999Z,0
2019-01-02T02:25:00.934Z,0
2019-01-02T02:26:04.057Z,0
2019-01-02T02:27:07.790Z,0
2019-01-02T02:28:10.601Z,0
2019-01-02T02:29:13.263Z,0
2019-01-02T02:30:17.390Z,0
2019-01-02T02:31:20.528Z,0
2019-01-02T02:32:24.606Z,0
2019-01-02T02:33:28.251Z,0
2019-01-02T02:34:33.750Z,0
2019-01-02T02:35:37.006Z,0
2019-01-02T02:36:41.435Z,0
2019-01-02T02:37:45.968Z,0
2019-01-02T02:38:48.438Z,0
2019-01-02T02:39:52.466Z,0
2019-01-02T02:40:56.677Z,0
2019-01-02T02:41:59.868Z,0
2019-01-02T02:43:04.794Z,0
2019-01-02T02:44:07.726Z,0
2019-01-02T02:45:13.097Z,0
2019-01-02T02:46:18.205Z,0
2019-01-02T02:47:21.386Z,0
2019-01-02T02:48:26.303Z,0
2019-01-02T02:49:30.740Z,0
2019-01-02T02:50:34.448Z,0
2019-01-02T02:51:39.670Z,0
2019-01-02T02:52:44.909Z,0
2019-01-02T02:53:48.229Z,0
2019-01-02T02:54:53.828Z,0
2019-01-02T02:55:58.256Z,0
2019-01-02T02:57:02.618Z,0
2019-01-02T02:58:06.246Z,0
2019-01-02T02:59:09.229Z,0
2019-01-02T03:00:14.029Z,0
2019-01-02T03:01:16.543Z,0
2019-01-02T03:02:20.348Z,0
2019-01-02T03:03:22.944Z,0
2019-01-02T03:04:27.362Z,0
2019-01-02T03:05:31.304Z,0
2019-01-02T03:06:34.707Z,0
2019-01-02T03:07:38.982Z,0
2019-01-02T03:08:43.807Z,0
2019-01-02T03:09:46.729Z,0
2019-01-02T03:10:51.034Z,0
2019-01-02T03:11:55.194Z,0
2019-01-02T03:12:58.753Z,0
2019-01-02T03:14:02.801Z,0
2019-01-02T03:15:07.471Z,0
2019-01-02T03:16:10.828Z,0
2019-01-02T03:17:14.978Z,0
2019-01-02T03:18:20.086Z,0
2019-01-02T03:19:23.056Z,0
2019-01-02T03:20:27.595Z,0
2019-01-02T03:21:30.447Z,0
2019-01-02T03:22:35.575Z,0
2019-01-02T03:23:40.731Z,0
2019-01-02T03:24:43.592Z,0
2019-01-02T03:25:47.346Z,0
2019-01-02T03:26:52.486Z,0
2019-01-02T03:27:55.085Z,0
2019-01-02T03:28:59.356Z,0
2019-01-02T03:30:04.879Z,0
2019-01-02T03:31:09.427Z,0
2019-01-02T03:32:13.487Z,0
2019-01-02T03:33:17.801Z,0
2019-01-02T03:34:20.086Z,0
2019-01-02T03:35:23.277Z,0
2019-01-02T03:36:26.465Z,0
2019-01-02T03:37:29.126Z,0
2019-01-02T03:38:31.767Z,0
2019-01-02T03:39:34.880Z,0
2019-01-02T03:40:38.145Z,0
2019-01-02T03:41:40.629Z,0
2019-01-02T03:42:43.208Z,0
2019-01-02T03:43:45.893Z,0
2019-01-02T03:44:49.729Z,0
2019-01-02T03:45:53.145Z,0
2019-01-02T03:46:56.725Z,0
2019-01-02T03:48:00.533Z,0
2019-01-02T03:49:02.952Z,0
2019-01-02T03:50:06.084Z,0
2019-01-02T03:51:09.164Z,0
2019-01-02T03:52:12.444Z,0
2019-01-02T03:53:15.451Z,0
2019-01-02T03:54:19.122Z,0
2019-01-02T03:55:22.847Z,0
2019-01-02T03:56:26.729Z,0
2019-01-02T03:57:30.388Z,0
2019-01-02T03:58:32.617Z,0
2019-01-02T03:59:35.701Z,0
2019-01-02T04:00:38.359Z,0
2019-01-02T04:01:41.292Z,0
2019-01-02T04:02:44.386Z,0
2019-01-02T04:03:47.633Z,0
2019-01-02T04:04:50.447Z,0
2019-01-02T04:05:53.123Z,0
2019-01-02T04:06:55.777Z,0
2019-01-02T04:07:58.582Z,0
2019-01-02T04:09:01.952Z,0
2019-01-02T04:10:05.267Z,0
2019-01-02T04:11:08.323Z,0
2019-01-02T04:12:11.429Z,0
2019-01-02T04:13:13.943Z,0
2019-01-02T04:14:17.866Z,0
2019-01-02T04:15:22.174Z,0
2019-01-02T04:16:26.069Z,0
2019-01-02T04:17:29.530Z,0
2019-01-02T04:18:33.198Z,0
2019-01-02T04:19:37.677Z,0
2019-01-02T04:20:41.090Z,0
2019-01-02T04:21:44.060Z,0
2019-01-02T04:22:47.496Z,0
2019-01-02T04:23:51.265Z,0
2019-01-02T04:24:55.368Z,0
2019-01-02T04:26:00.161Z,0
2019-01-02T04:27:03.469Z,0
2019-01-02T04:28:06.898Z,0
2019-01-02T04:29:09.311Z,0
2019-01-02T04:30:12.945Z,0
2019-01-02T04:31:16.260Z,0
2019-01-02T04:32:19.725Z,0
2019-01-02T04:33:23.241Z,0
2019-01-02T04:34:26.638Z,0
2019-01-02T04:35:29.932Z,0
2019-01-02T04:36:32.528Z,0
2019-01-02T04:37:35.644Z,0
2019-01-02T04:38:39.075Z,0
2019-01-02T04:39:41.971Z,0
2019-01-02T04:40:45.199Z,0
2019-01-02T04:41:48.518Z,0
2019-01-02T04:42:52.213Z,0
2019-01-02T04:43:54.551Z,0
2019-01-02T04:44:58.376Z,0
2019-01-02T04:46:01.411Z,0
2019-01-02T04:47:04.083Z,0
2019-01-02T04:48:07.841Z,0
2019-01-02T04:49:10.772Z,0
2019-01-02T04:50:13.897Z,0
2019-01-02T04:51:16.568Z,0
2019-01-02T04:52:20.395Z,0
2019-01-02T04:53:23.844Z,0
2019-01-02T04:54:27.118Z,0
2019-01-02T04:55:30.130Z,0
2019-01-02T04:56:33.141Z,0
2019-01-02T04:57:36.113Z,0
2019-01-02T04:58:40.074Z,0
2019-01-02T04:59:43.532Z,0
2019-01-02T05:00:47.144Z,0
2019-01-02T05:01:50.997Z,0
2019-01-02T05:02:53.734Z,0
2019-01-02T05:03:56.836Z,0
2019-01-02T05:05:00.522Z,0
2019-01-02T05:06:04.448Z,0
2019-01-02T05:07:07.676Z,0
2019-01-02T05:08:11.846Z,0
2019-01-02T05:09:14.764Z,0
2019-01-02T05:10:18.231Z,0
2019-01-02T05:11:21.173Z,0
2019-01-02T05:12:24.053Z,0
2019-01-02T05:13:27.123Z,0
2019-01-02T05:14:31.161Z,0
2019-01-02T05:15:33.945Z,0
2019-01-02T05:16:37.709Z,0
2019-01-02T05:17:41.269Z,0
2019-01-02T05:18:44.735Z,0
2019-01-02T05:19:48.483Z,0
2019-01-02T05:20:51.498Z,0
2019-01-02T05:21:54.848Z,0
2019-01-02T05:22:58.281Z,0
2019-01-02T05:24:02.131Z,0
2019-01-02T05:25:06.507Z,0
2019-01-02T05:26:09.446Z,0
2019-01-02T05:27:14.268Z,0
2019-01-02T05:28:16.803Z,0
2019-01-02T05:29:19.969Z,0
2019-01-02T05:30:22.948Z,0
2019-01-02T05:31:26.186Z,0
2019-01-02T05:32:29.065Z,0
2019-01-02T05:33:31.794Z,0
2019-01-02T05:34:34.829Z,0
2019-01-02T05:35:38.508Z,0
2019-01-02T05:36:40.752Z,0
2019-01-02T05:37:43.673Z,0
2019-01-02T05:38:46.497Z,0
2019-01-02T05:39:49.592Z,0
2019-01-02T05:40:53.439Z,0
2019-01-02T05:41:57.227Z,0
2019-01-02T05:43:00.582Z,0
2019-01-02T05:44:04.061Z,0
2019-01-02T05:45:07.414Z,0
2019-01-02T05:46:10.553Z,0
2019-01-02T05:47:13.889Z,0
2019-01-02T05:48:16.409Z,0
2019-01-02T05:49:19.569Z,0
2019-01-02T05:50:23.119Z,0
2019-01-02T05:51:26.952Z,0
2019-01-02T05:52:30.603Z,0
2019-01-02T05:53:33.734Z,0
2019-01-02T05:54:36.813Z,0
2019-01-02T05:55:40.632Z,0
2019-01-02T05:56:43.778Z,0
2019-01-02T05:57:46.932Z,0
2019-01-02T05:58:50.059Z,0
2019-01-02T05:59:53.133Z,0
2019-01-02T06:00:58.704Z,0
2019-01-02T06:02:01.724Z,0
2019-01-02T06:03:05.561Z,0
2019-01-02T06:04:08.670Z,0
2019-01-02T06:05:11.246Z,0
2019-01-02T06:06:14.126Z,0
2019-01-02T06:07:16.514Z,0
2019-01-02T06:08:19.086Z,0
2019-01-02T06:09:21.994Z,0
2019-01-02T06:10:24.720Z,0
2019-01-02T06:11:28.529Z,0
2019-01-02T06:12:30.944Z,0
2019-01-02T06:13:33.544Z,0
2019-01-02T06:14:36.244Z,0
2019-01-02T06:15:38.919Z,0
2019-01-02T06:16:41.418Z,0
2019-01-02T06:17:43.983Z,0
2019-01-02T06:18:47.201Z,0
2019-01-02T06:19:50.371Z,0
2019-01-02T06:20:52.751Z,0
2019-01-02T06:21:55.321Z,0
2019-01-02T06:22:57.804Z,0
2019-01-02T06:24:00.932Z,0
2019-01-02T06:25:04.861Z,0
2019-01-02T06:26:07.792Z,0
2019-01-02T06:27:10.635Z,0
2019-01-02T06:28:13.688Z,0
2019-01-02T06:29:16.020Z,0
2019-01-02T06:30:19.144Z,0
2019-01-02T06:31:22.247Z,0
2019-01-02T06:32:26.182Z,0
2019-01-02T06:33:30.722Z,0
2019-01-02T06:34:34.701Z,0
2019-01-02T06:35:37.205Z,0
2019-01-02T06:36:39.799Z,0
2019-01-02T06:37:43.231Z,0
2019-01-02T06:38:47.877Z,0
2019-01-02T06:39:50.748Z,0
2019-01-02T06:40:53.400Z,0
2019-01-02T06:41:56.683Z,0
2019-01-02T06:42:59.067Z,0
2019-01-02T06:44:01.583Z,0
2019-01-02T06:45:04.437Z,0
2019-01-02T06:46:07.082Z,4
2019-01-02T06:47:09.919Z,4
2019-01-02T06:48:12.943Z,4
2019-01-02T06:49:15.212Z,0
2019-01-02T06:50:18.678Z,0
2019-01-02T06:51:21.192Z,4
2019-01-02T06:52:23.719Z,4
2019-01-02T06:53:26.926Z,4
2019-01-02T06:54:30.440Z,4
2019-01-02T06:55:34.099Z,8
2019-01-02T06:56:36.877Z,8
2019-01-02T06:57:39.955Z,8
2019-01-02T06:58:43.909Z,8
2019-01-02T06:59:47.439Z,12
2019-01-02T07:00:49.888Z,12
2019-01-02T07:01:52.831Z,16
2019-01-02T07:02:55.680Z,16
2019-01-02T07:03:58.220Z,20
2019-01-02T07:05:01.390Z,28
2019-01-02T07:06:04.504Z,32
2019-01-02T07:07:07.140Z,32
2019-01-02T07:08:09.935Z,40
2019-01-02T07:09:12.842Z,40
2019-01-02T07:10:15.614Z,44
2019-01-02T07:11:18.471Z,52
2019-01-02T07:12:21.370Z,56
2019-01-02T07:13:24.691Z,64
2019-01-02T07:14:28.128Z,72
2019-01-02T07:15:30.906Z,80
2019-01-02T07:16:33.784Z,92
2019-01-02T07:17:38.137Z,108
2019-01-02T07:18:41.465Z,132
2019-01-02T07:19:45.394Z,144
2019-01-02T07:20:48.268Z,156
2019-01-02T07:21:50.720Z,172
2019-01-02T07:22:53.114Z,184
2019-01-02T07:23:56.507Z,192
2019-01-02T07:24:58.881Z,228
2019-01-02T07:26:02.470Z,248
2019-01-02T07:27:06.862Z,272
2019-01-02T07:28:10.331Z,248
2019-01-02T07:29:13.009Z,248
2019-01-02T07:30:15.733Z,272
2019-01-02T07:31:18.379Z,284
2019-01-02T07:32:24.636Z,316
2019-01-02T07:33:29.208Z,376
2019-01-02T07:34:31.878Z,400
2019-01-02T07:35:34.349Z,444
2019-01-02T07:36:37.487Z,472
2019-01-02T07:37:40.472Z,504
2019-01-02T07:38:43.418Z,500
2019-01-02T07:39:45.935Z,532
2019-01-02T07:40:49.373Z,588
2019-01-02T07:41:52.845Z,596
2019-01-02T07:42:57.390Z,608
2019-01-02T07:44:00.010Z,656
2019-01-02T07:45:03.555Z,636
2019-01-02T07:46:06.463Z,624
2019-01-02T07:47:08.850Z,660
2019-01-02T07:48:11.792Z,740
2019-01-02T07:49:15.332Z,772
2019-01-02T07:50:18.073Z,748
2019-01-02T07:51:21.136Z,764
2019-01-02T07:52:23.611Z,804
2019-01-02T07:53:26.207Z,868
2019-01-02T07:54:28.931Z,904
2019-01-02T07:55:31.720Z,952
2019-01-02T07:56:34.730Z,1000
2019-01-02T07:57:37.567Z,1096
2019-01-02T07:58:40.162Z,1116
2019-01-02T07:59:43.977Z,1116
2019-01-02T08:00:47.446Z,1216
2019-01-02T08:01:50.406Z,1308
2019-01-02T08:02:53.444Z,1308
2019-01-02T08:03:56.592Z,1196
2019-01-02T08:04:59.523Z,1300
2019-01-02T08:06:02.524Z,1384
2019-01-02T08:07:06.080Z,1364
2019-01-02T08:08:08.659Z,1420
2019-01-02T08:09:12.113Z,1288
2019-01-02T08:10:14.938Z,1276
2019-01-02T08:11:18.988Z,1580
2019-01-02T08:12:21.552Z,1944
2019-01-02T08:13:25.928Z,1892
2019-01-02T08:14:28.884Z,1992
2019-01-02T08:15:31.817Z,1748
2019-01-02T08:16:34.737Z,1664
2019-01-02T08:17:38.269Z,1976
2019-01-02T08:18:40.968Z,2236
2019-01-02T08:19:44.632Z,2124
2019-01-02T08:20:47.099Z,2068
2019-01-02T08:21:50.249Z,2080
2019-01-02T08:22:53.173Z,2268
2019-01-02T08:23:56.411Z,2660
2019-01-02T08:24:59.028Z,2712
2019-01-02T08:26:01.747Z,3048
2019-01-02T08:27:04.190Z,3424
2019-01-02T08:28:07.644Z,3676
2019-01-02T08:29:10.101Z,3708
2019-01-02T08:30:12.639Z,6492
2019-01-02T08:31:15.389Z,6764
2019-01-02T08:32:18.277Z,10600
2019-01-02T08:33:21.048Z,5084
2019-01-02T08:34:24.457Z,10052
2019-01-02T08:35:27.210Z,11336
2019-01-02T08:36:29.991Z,11968
2019-01-02T08:37:33.563Z,12792
2019-01-02T08:38:36.570Z,13432
2019-01-02T08:39:39.156Z,13628
2019-01-02T08:40:42.339Z,13248
2019-01-02T08:41:45.529Z,13848
2019-01-02T08:42:49.076Z,15040
2019-01-02T08:43:52.640Z,15616
2019-01-02T08:44:56.676Z,15968
2019-01-02T08:46:00.144Z,16352
2019-01-02T08:47:03.562Z,16928
2019-01-02T08:48:06.762Z,17696
2019-01-02T08:49:10.044Z,17184
2019-01-02T08:50:13.349Z,17824
2019-01-02T08:51:16.202Z,17728
2019-01-02T08:52:19.068Z,17984
2019-01-02T08:53:22.908Z,18560
2019-01-02T08:54:26.651Z,19264
2019-01-02T08:55:29.858Z,19680
2019-01-02T08:56:34.711Z,20288
2019-01-02T08:57:40.021Z,19904
2019-01-02T08:58:43.254Z,20640
2019-01-02T08:59:46.955Z,22144
2019-01-02T09:00:52.141Z,22720
2019-01-02T09:01:55.823Z,23136
2019-01-02T09:02:59.191Z,21792
2019-01-02T09:04:02.851Z,19936
2019-01-02T09:05:06.577Z,20832
2019-01-02T09:06:10.813Z,23904
2019-01-02T09:07:14.783Z,22464
2019-01-02T09:08:18.058Z,22016
2019-01-02T09:09:22.697Z,20928
2019-01-02T09:10:27.454Z,18560
2019-01-02T09:11:30.223Z,19168
2019-01-02T09:12:35.450Z,23360
2019-01-02T09:13:38.857Z,25024
2019-01-02T09:14:42.121Z,25920
2019-01-02T09:15:46.921Z,26784
2019-01-02T09:16:51.025Z,24160
2019-01-02T09:17:54.588Z,24032
2019-01-02T09:18:57.943Z,21920
2019-01-02T09:20:03.155Z,23552
2019-01-02T09:21:06.426Z,24064
2019-01-02T09:22:09.608Z,23776
2019-01-02T09:23:12.143Z,22592
2019-01-02T09:24:15.863Z,20480
2019-01-02T09:25:18.633Z,22496
2019-01-02T09:26:21.495Z,24064
2019-01-02T09:27:25.031Z,24672
2019-01-02T09:28:28.172Z,26528
2019-01-02T09:29:31.350Z,27808
2019-01-02T09:30:33.766Z,28224
2019-01-02T09:31:37.333Z,29472
2019-01-02T09:32:41.529Z,29760
2019-01-02T09:33:52.006Z,28992
2019-01-02T09:34:55.273Z,28032
2019-01-02T09:35:58.299Z,27296
2019-01-02T09:37:01.062Z,27136
2019-01-02T09:38:04.515Z,26944
2019-01-02T09:39:07.529Z,26944
2019-01-02T09:40:12.359Z,27424
2019-01-02T09:41:16.586Z,29920
2019-01-02T09:42:20.397Z,32096
2019-01-02T09:43:25.612Z,32192
2019-01-02T09:44:29.433Z,31456
2019-01-02T09:45:32.780Z,32192
2019-01-02T09:46:36.465Z,33824
2019-01-02T09:47:39.880Z,34624
2019-01-02T09:48:42.629Z,32352
2019-01-02T09:49:46.207Z,30752
2019-01-02T09:50:49.256Z,32512
2019-01-02T09:51:52.792Z,34272
2019-01-02T09:52:55.245Z,34304
2019-01-02T09:53:58.867Z,34848
2019-01-02T09:55:01.886Z,35200
2019-01-02T09:56:04.876Z,34720
2019-01-02T09:57:07.914Z,34336
2019-01-02T09:58:11.291Z,33760
2019-01-02T09:59:14.165Z,33568
2019-01-02T10:00:17.432Z,34368
2019-01-02T10:01:19.984Z,35104
2019-01-02T10:02:23.440Z,36640
2019-01-02T10:03:26.961Z,37504
2019-01-02T10:04:29.669Z,36832
2019-01-02T10:05:32.213Z,37664
2019-01-02T10:06:35.008Z,38208
2019-01-02T10:07:37.780Z,39072
2019-01-02T10:08:41.835Z,40320
2019-01-02T10:09:46.333Z,39680
2019-01-02T10:10:49.613Z,38496
2019-01-02T10:11:53.898Z,37632
2019-01-02T10:12:56.879Z,37504
2019-01-02T10:13:59.519Z,37440
2019-01-02T10:15:01.861Z,37248
2019-01-02T10:16:05.628Z,37440
2019-01-02T10:17:08.625Z,36736
2019-01-02T10:18:12.154Z,36416
2019-01-02T10:19:15.103Z,37280
2019-01-02T10:20:17.801Z,36768
2019-01-02T10:21:21.052Z,35808
2019-01-02T10:22:23.574Z,35424
2019-01-02T10:23:26.412Z,36224
2019-01-02T10:24:29.010Z,35776
2019-01-02T10:25:32.464Z,34816
2019-01-02T10:26:36.525Z,35808
2019-01-02T10:27:39.344Z,37184
2019-01-02T10:28:42.067Z,37216
2019-01-02T10:29:45.614Z,37536
2019-01-02T10:30:48.356Z,38080
2019-01-02T10:31:51.638Z,40320
2019-01-02T10:32:54.853Z,40128
2019-01-02T10:33:58.065Z,23424
2019-01-02T10:35:01.164Z,18208
2019-01-02T10:36:04.349Z,33440
2019-01-02T10:37:07.427Z,24736
2019-01-02T10:38:10.273Z,34176
2019-01-02T10:39:12.789Z,40320
2019-01-02T10:40:15.294Z,41152
2019-01-02T10:41:18.036Z,13008
2019-01-02T10:42:20.524Z,39360
2019-01-02T10:43:24.234Z,39008
2019-01-02T10:44:27.310Z,21216
2019-01-02T10:45:30.181Z,11716
2019-01-02T10:46:34.305Z,26848
2019-01-02T10:47:37.980Z,32320
2019-01-02T10:48:41.647Z,38240
2019-01-02T10:49:45.671Z,12920
2019-01-02T10:50:49.791Z,39328
2019-01-02T10:51:53.464Z,20128
2019-01-02T10:52:57.222Z,37536
2019-01-02T10:54:00.725Z,38720
2019-01-02T10:55:04.668Z,41760
2019-01-02T10:56:10.214Z,41216
2019-01-02T10:57:13.606Z,41440
2019-01-02T10:58:17.098Z,42208
2019-01-02T10:59:20.659Z,41472
2019-01-02T11:00:23.581Z,40352
2019-01-02T11:01:26.396Z,40064
2019-01-02T11:02:30.379Z,41536
2019-01-02T11:03:33.218Z,44416
2019-01-02T11:04:37.314Z,44096
2019-01-02T11:05:41.255Z,41920
2019-01-02T11:06:43.453Z,42208
2019-01-02T11:07:46.358Z,30432
2019-01-02T11:08:49.300Z,13256
2019-01-02T11:09:52.198Z,44416
2019-01-02T11:10:54.855Z,45152
2019-01-02T11:11:58.379Z,28640
2019-01-02T11:13:00.718Z,39648
2019-01-02T11:14:03.442Z,11908
2019-01-02T11:15:06.141Z,16960
2019-01-02T11:16:08.621Z,9440
2019-01-02T11:17:11.046Z,7800
2019-01-02T11:18:14.189Z,6836
2019-01-02T11:19:16.922Z,7372
2019-01-02T11:20:20.781Z,6976
2019-01-02T11:21:25.910Z,7432
2019-01-02T11:22:29.649Z,6928
2019-01-02T11:23:34.507Z,6740
2019-01-02T11:24:37.735Z,7704
2019-01-02T11:25:39.992Z,7460
2019-01-02T11:26:42.718Z,8700
2019-01-02T11:27:45.309Z,7256
2019-01-02T11:28:48.127Z,9044
2019-01-02T11:29:50.996Z,8796
2019-01-02T11:30:55.296Z,6808
2019-01-02T11:31:58.562Z,6192
2019-01-02T11:33:03.308Z,7488
2019-01-02T11:34:06.448Z,9688
2019-01-02T11:35:09.626Z,11160
2019-01-02T11:36:12.235Z,47392
2019-01-02T11:37:15.055Z,46208
2019-01-02T11:38:19.047Z,14556
2019-01-02T11:39:23.187Z,10072
2019-01-02T11:40:26.697Z,13544
2019-01-02T11:41:30.312Z,19584
2019-01-02T11:42:34.176Z,36288
2019-01-02T11:43:37.484Z,12248
2019-01-02T11:44:40.194Z,14952
2019-01-02T11:45:44.332Z,14832
2019-01-02T11:46:47.101Z,13316
2019-01-02T11:47:49.917Z,12108
2019-01-02T11:48:53.239Z,14820
2019-01-02T11:49:56.308Z,37888
2019-01-02T11:50:59.288Z,14592
2019-01-02T11:52:02.223Z,31392
2019-01-02T11:53:04.752Z,13192
2019-01-02T11:54:08.387Z,41344
2019-01-02T11:55:11.251Z,42048
2019-01-02T11:56:13.884Z,42880
2019-01-02T11:57:16.324Z,40608
2019-01-02T11:58:19.102Z,39616
2019-01-02T11:59:21.524Z,37984
2019-01-02T12:00:24.400Z,24896
2019-01-02T12:01:26.884Z,8260
2019-01-02T12:02:34.148Z,6840
2019-01-02T12:03:36.748Z,6976
2019-01-02T12:04:39.652Z,8772
2019-01-02T12:05:42.002Z,8916
2019-01-02T12:06:44.610Z,10112
2019-01-02T12:07:47.186Z,23744
2019-01-02T12:08:50.477Z,26272
2019-01-02T12:09:52.928Z,41376
2019-01-02T12:10:55.657Z,39264
2019-01-02T12:11:58.315Z,41888
2019-01-02T12:13:00.646Z,36320
2019-01-02T12:14:03.318Z,38816
2019-01-02T12:15:05.970Z,39808
2019-01-02T12:16:08.926Z,32992
2019-01-02T12:17:11.864Z,31648
2019-01-02T12:18:15.064Z,38752
2019-01-02T12:19:19.552Z,38944
2019-01-02T12:20:23.288Z,10724
2019-01-02T12:21:27.096Z,38208
2019-01-02T12:22:31.591Z,38112
2019-01-02T12:23:35.989Z,37984
2019-01-02T12:24:39.523Z,40832
2019-01-02T12:25:42.483Z,41984
2019-01-02T12:26:46.785Z,39456
2019-01-02T12:27:50.765Z,38848
2019-01-02T12:28:53.779Z,38176
2019-01-02T12:29:57.165Z,36704
2019-01-02T12:30:59.981Z,32608
2019-01-02T12:32:03.465Z,31808
2019-01-02T12:33:06.824Z,30272
2019-01-02T12:34:09.816Z,29920
2019-01-02T12:35:12.087Z,28928
2019-01-02T12:36:14.665Z,28064
2019-01-02T12:37:17.110Z,22176
2019-01-02T12:38:19.975Z,28832
2019-01-02T12:39:22.843Z,32096
2019-01-02T12:40:25.520Z,24224
2019-01-02T12:41:28.456Z,24192
2019-01-02T12:42:31.070Z,19200
2019-01-02T12:43:33.686Z,27264
2019-01-02T12:44:37.579Z,19872
2019-01-02T12:45:40.205Z,14304
2019-01-02T12:46:43.826Z,12724
2019-01-02T12:47:47.871Z,12220
2019-01-02T12:48:50.881Z,11808
2019-01-02T12:49:54.702Z,7604
2019-01-02T12:50:57.466Z,6632
2019-01-02T12:51:59.756Z,6304
2019-01-02T12:53:02.811Z,7672
2019-01-02T12:54:05.728Z,6460
2019-01-02T12:55:08.561Z,6108
2019-01-02T12:56:11.399Z,6356
2019-01-02T12:57:14.037Z,6760
2019-01-02T12:58:16.644Z,7172
2019-01-02T12:59:18.903Z,7480
2019-01-02T13:00:21.791Z,8328
2019-01-02T13:01:24.578Z,7012
2019-01-02T13:02:27.535Z,7140
2019-01-02T13:03:31.119Z,7300
2019-01-02T13:04:33.987Z,7928
2019-01-02T13:05:37.676Z,8092
2019-01-02T13:06:40.896Z,8820
2019-01-02T13:07:44.440Z,8252
2019-01-02T13:08:48.907Z,8656
2019-01-02T13:09:52.359Z,8332
2019-01-02T13:10:54.810Z,8788
2019-01-02T13:11:57.358Z,10288
2019-01-02T13:13:01.133Z,12468
2019-01-02T13:14:03.554Z,10420
2019-01-02T13:15:06.286Z,8992
2019-01-02T13:16:08.825Z,10732
2019-01-02T13:17:12.100Z,6956
2019-01-02T13:18:14.768Z,5448
2019-01-02T13:19:17.867Z,6476
2019-01-02T13:20:21.107Z,6444
2019-01-02T13:21:23.657Z,5660
2019-01-02T13:22:26.238Z,5360
2019-01-02T13:23:29.542Z,5264
2019-01-02T13:24:32.841Z,5132
2019-01-02T13:25:35.431Z,4980
2019-01-02T13:26:38.582Z,4780
2019-01-02T13:27:41.229Z,4660
2019-01-02T13:28:44.513Z,4636
2019-01-02T13:29:47.189Z,4540
2019-01-02T13:30:51.079Z,4520
2019-01-02T13:31:53.682Z,4492
2019-01-02T13:32:56.259Z,4304
2019-01-02T13:33:58.986Z,4252
2019-01-02T13:35:01.218Z,4276
2019-01-02T13:36:03.888Z,4176
2019-01-02T13:37:07.010Z,4164
2019-01-02T13:38:09.815Z,4152
2019-01-02T13:39:12.387Z,4124
2019-01-02T13:40:16.063Z,4148
2019-01-02T13:41:18.502Z,4092
2019-01-02T13:42:21.353Z,4116
2019-01-02T13:43:23.708Z,4016
2019-01-02T13:44:26.387Z,4164
2019-01-02T13:45:30.229Z,3964
2019-01-02T13:46:32.828Z,3916
2019-01-02T13:47:35.447Z,4156
2019-01-02T13:48:38.138Z,3868
2019-01-02T13:49:40.889Z,3836
2019-01-02T13:50:43.483Z,3876
2019-01-02T13:51:49.022Z,3996
2019-01-02T13:52:51.861Z,3928
2019-01-02T13:53:54.732Z,3944
2019-01-02T13:54:57.347Z,4004
2019-01-02T13:56:00.340Z,4032
2019-01-02T13:57:03.922Z,3916
2019-01-02T13:58:06.364Z,3632
2019-01-02T13:59:08.641Z,3516
2019-01-02T14:00:11.740Z,3492
2019-01-02T14:01:14.192Z,3440
2019-01-02T14:02:16.664Z,3472
2019-01-02T14:03:20.101Z,3532
2019-01-02T14:04:23.345Z,3308
2019-01-02T14:05:25.688Z,3140
2019-01-02T14:06:28.747Z,3192
2019-01-02T14:07:31.461Z,3216
2019-01-02T14:08:34.434Z,3088
2019-01-02T14:09:36.825Z,3220
2019-01-02T14:10:39.883Z,3048
2019-01-02T14:11:43.379Z,3036
2019-01-02T14:12:46.622Z,3000
2019-01-02T14:13:49.601Z,2896
2019-01-02T14:14:53.204Z,2980
2019-01-02T14:15:55.905Z,2812
2019-01-02T14:16:58.850Z,2792
2019-01-02T14:18:02.038Z,2784
2019-01-02T14:19:04.671Z,2688
2019-01-02T14:20:07.091Z,2616
2019-01-02T14:21:09.526Z,2516
2019-01-02T14:22:12.261Z,2436
2019-01-02T14:23:14.991Z,2380
2019-01-02T14:24:17.122Z,2336
2019-01-02T14:25:19.278Z,2276
2019-01-02T14:26:21.405Z,2228
2019-01-02T14:27:23.812Z,2176
2019-01-02T14:28:26.267Z,2128
2019-01-02T14:29:28.419Z,2084
2019-01-02T14:30:30.552Z,2032
2019-01-02T14:31:38.520Z,1980
2019-01-02T14:32:40.872Z,1928
2019-01-02T14:33:43.006Z,1872
2019-01-02T14:34:45.149Z,1828
2019-01-02T14:35:47.297Z,1784
2019-01-02T14:36:49.443Z,1736
2019-01-02T14:37:51.585Z,1688
2019-01-02T14:38:54.030Z,1632
2019-01-02T14:39:56.167Z,1580
2019-01-02T14:40:58.324Z,1536
2019-01-02T14:42:00.445Z,1480
2019-01-02T14:43:02.586Z,1432
2019-01-02T14:44:04.745Z,1376
2019-01-02T14:45:06.868Z,1324
2019-01-02T14:46:09.008Z,1268